createdAt,value
2019-04-21T00:00:25.845Z,165575.23
2019-04-21T00:02:55.421Z,165519.20
2019-04-21T00:05:49.941Z,165460.48
2019-04-21T00:08:21.392Z,165393.78
2019-04-21T00:10:48.006Z,165457.84
2019-04-21T00:13:08.057Z,165475.16
2019-04-21T00:15:34.516Z,165496.53
2019-04-21T00:18:03.880Z,165465.83
2019-04-21T00:20:39.287Z,165412.45
2019-04-21T00:23:19.882Z,165369.77
2019-04-21T00:25:44.951Z,165420.48
2019-04-21T00:28:28.993Z,165377.75
2019-04-21T00:30:50.910Z,165356.44
2019-04-21T00:33:09.195Z,165357.78
2019-04-21T00:35:39.592Z,165285.72
2019-04-21T00:38:25.044Z,165332.38
2019-04-21T00:40:56.572Z,165324.39
2019-04-21T00:43:21.878Z,165336.37
2019-04-21T00:45:47.074Z,165312.36
2019-04-21T00:48:23.633Z,165279.03
2019-04-21T00:51:12.319Z,165227.03
2019-04-21T00:53:44.127Z,165192.34
2019-04-21T00:56:13.198Z,165177.69
2019-04-21T00:58:37.163Z,165204.37
2019-04-21T01:01:03.208Z,165207.02
2019-04-21T01:03:40.163Z,165193.69
2019-04-21T01:06:03.275Z,165228.38
2019-04-21T01:08:35.615Z,165236.36
2019-04-21T01:11:02.243Z,165244.34
2019-04-21T01:13:44.048Z,165228.38
2019-04-21T01:16:07.142Z,165196.34
2019-04-21T01:18:34.176Z,165215.00
2019-04-21T01:20:44.304Z,165188.36
2019-04-21T01:23:12.775Z,165193.69
2019-04-21T01:25:49.966Z,165113.67
2019-04-21T01:28:29.076Z,165088.38
2019-04-21T01:31:07.470Z,165055.06
2019-04-21T01:33:42.939Z,165089.67
2019-04-21T01:36:02.507Z,165036.36
2019-04-21T01:38:34.380Z,165055.06
2019-04-21T01:41:08.619Z,165119.00
2019-04-21T01:43:34.970Z,165041.69
2019-04-21T01:48:30.694Z,165103.05
2019-04-21T01:51:25.022Z,165044.38
2019-04-21T01:54:11.985Z,165057.70
2019-04-21T01:57:03.400Z,165056.36
2019-04-21T01:59:33.158Z,164937.77
2019-04-21T02:02:06.203Z,165027.03
2019-04-21T02:04:42.912Z,165004.37
2019-04-21T02:07:13.087Z,164919.13
2019-04-21T02:09:38.145Z,164928.44
2019-04-21T02:12:13.387Z,164947.09
2019-04-21T02:14:46.119Z,164929.78
2019-04-21T02:17:13.319Z,164996.41
2019-04-21T02:19:36.049Z,164924.45
2019-04-21T02:22:04.576Z,164889.80
2019-04-21T02:27:17.367Z,164892.44
2019-04-21T02:29:47.148Z,164885.81
2019-04-21T02:32:33.522Z,164860.48
2019-04-21T02:35:04.027Z,164825.84
2019-04-21T02:40:00.261Z,164827.19
2019-04-21T02:42:23.827Z,164764.58
2019-04-21T02:44:51.706Z,164813.88
2019-04-21T02:47:40.618Z,164825.84
2019-04-21T02:50:06.074Z,164831.17
2019-04-21T02:52:30.923Z,164812.53
2019-04-21T02:57:22.747Z,164865.83
2019-04-21T03:02:56.980Z,164855.16
2019-04-21T03:08:22.815Z,164857.84
2019-04-21T03:10:43.363Z,164856.50
2019-04-21T03:13:26.010Z,164797.87
2019-04-21T03:15:53.353Z,164847.17
2019-04-21T03:18:12.600Z,164800.56
2019-04-21T03:20:49.080Z,164828.53
2019-04-21T03:23:23.837Z,164751.28
2019-04-21T03:28:14.205Z,164723.31
2019-04-21T03:31:14.023Z,164723.31
2019-04-21T03:36:12.886Z,164700.59
2019-04-21T03:38:18.889Z,164729.94
2019-04-21T03:40:39.918Z,164773.91
2019-04-21T03:43:23.113Z,164723.31
2019-04-21T03:45:42.434Z,164759.25
2019-04-21T03:48:17.194Z,164804.56
2019-04-21T03:53:20.854Z,164635.37
2019-04-21T04:01:16.458Z,164668.66
2019-04-21T04:09:49.028Z,164689.98
2019-04-21T04:12:15.189Z,164599.41
2019-04-21T04:22:15.148Z,164604.72
2019-04-21T04:27:20.201Z,164644.69
2019-04-21T04:29:44.587Z,164693.97
2019-04-21T04:32:14.577Z,164602.09
2019-04-21T04:34:49.815Z,164564.83
2019-04-21T04:40:05.806Z,164600.75
2019-04-21T04:42:41.328Z,164666.02
2019-04-21T04:47:53.012Z,164623.36
2019-04-21T04:50:26.296Z,164618.09
2019-04-21T04:53:03.590Z,164650.02
2019-04-21T04:57:46.985Z,164668.66
2019-04-21T05:00:25.871Z,164660.69
2019-04-21T05:02:52.421Z,164643.34
2019-04-21T05:07:46.471Z,164630.03
2019-04-21T05:15:10.076Z,164760.59
2019-04-21T05:17:48.242Z,164800.56
2019-04-21T05:20:18.573Z,164833.88
2019-04-21T05:22:47.397Z,164859.14
2019-04-21T05:24:58.410Z,164867.16
2019-04-21T05:27:38.538Z,164896.48
2019-04-21T05:30:33.957Z,164931.08
2019-04-21T05:33:19.241Z,164981.75
2019-04-21T05:36:11.461Z,164967.09
2019-04-21T05:38:56.661Z,165095.02
2019-04-21T05:41:22.117Z,165225.69
2019-04-21T05:43:56.369Z,165280.38
2019-04-21T05:46:32.356Z,165352.45
2019-04-21T05:49:02.883Z,165460.48
2019-04-21T05:51:31.789Z,165588.63
2019-04-21T05:54:14.745Z,165633.97
2019-04-21T05:56:36.029Z,165711.41
2019-04-21T05:59:02.342Z,165732.80
2019-04-21T06:01:42.033Z,165687.38
2019-04-21T06:04:16.847Z,165787.52
2019-04-21T06:06:40.796Z,165807.55
2019-04-21T06:09:11.462Z,165870.38
2019-04-21T06:11:36.316Z,165795.56
2019-04-21T06:14:08.054Z,165863.67
2019-04-21T06:16:45.115Z,165893.06
2019-04-21T06:19:05.036Z,165894.42
2019-04-21T06:21:39.482Z,165828.94
2019-04-21T06:24:03.792Z,165989.25
2019-04-21T06:29:08.655Z,166106.86
2019-04-21T06:34:11.508Z,166195.09
2019-04-21T06:37:07.797Z,165971.91
2019-04-21T06:39:40.522Z,166205.73
2019-04-21T06:42:03.670Z,166312.75
2019-04-21T06:44:32.301Z,166286.05
2019-04-21T06:47:06.405Z,166237.86
2019-04-21T06:49:40.482Z,166368.95
2019-04-21T06:52:20.696Z,166423.75
2019-04-21T06:54:40.947Z,166540.14
2019-04-21T06:57:08.756Z,166530.78
2019-04-21T06:59:31.684Z,166691.41
2019-04-21T07:02:29.018Z,166707.44
2019-04-21T07:04:57.587Z,166623.16
2019-04-21T07:07:08.044Z,166676.69
2019-04-21T07:09:36.329Z,166835.97
2019-04-21T07:12:06.156Z,166839.98
2019-04-21T07:14:44.034Z,166556.22
2019-04-21T07:17:16.032Z,166850.70
2019-04-21T07:19:42.345Z,166831.97
2019-04-21T07:22:14.596Z,166940.39
2019-04-21T07:25:00.310Z,167007.41
2019-04-21T07:27:11.768Z,166943.09
2019-04-21T07:29:39.543Z,167113.22
2019-04-21T07:32:12.174Z,166849.34
2019-04-21T07:34:40.817Z,167070.34
2019-04-21T07:37:06.548Z,166988.66
2019-04-21T07:39:40.307Z,166945.81
2019-04-21T07:42:05.719Z,166941.75
2019-04-21T07:44:35.221Z,166856.06
2019-04-21T07:47:11.549Z,166998.03
2019-04-21T07:49:59.072Z,167052.97
2019-04-21T07:52:28.939Z,166902.91
2019-04-21T07:55:05.436Z,167115.92
2019-04-21T07:57:23.527Z,166914.98
2019-04-21T08:00:10.189Z,167098.53
2019-04-21T08:02:29.409Z,166874.81
2019-04-21T08:05:05.566Z,167316.94
2019-04-21T08:07:32.369Z,167229.78
2019-04-21T08:09:57.037Z,167020.83
2019-04-21T08:12:24.184Z,166995.38
2019-04-21T08:14:57.443Z,167043.59
2019-04-21T08:17:30.289Z,167331.69
2019-04-21T08:19:53.045Z,167087.80
2019-04-21T08:22:32.093Z,167189.63
2019-04-21T08:24:59.379Z,167129.31
2019-04-21T08:27:35.137Z,167200.30
2019-04-21T08:29:58.968Z,167237.86
2019-04-21T08:32:40.946Z,167492.58
2019-04-21T08:35:22.778Z,167637.45
2019-04-21T08:37:34.162Z,167591.83
2019-04-21T08:40:12.346Z,167602.58
2019-04-21T08:42:35.214Z,167707.22
2019-04-21T08:45:02.354Z,167622.70
2019-04-21T08:47:37.502Z,167772.94
2019-04-21T08:50:00.329Z,167911.19
2019-04-21T08:52:42.773Z,167966.23
2019-04-21T08:55:18.980Z,167925.94
2019-04-21T09:01:04.800Z,168148.84
2019-04-21T09:03:46.138Z,167809.25
2019-04-21T09:06:13.678Z,168108.59
2019-04-21T09:08:45.775Z,168101.88
2019-04-21T09:11:14.955Z,168033.34
2019-04-21T09:13:42.585Z,168323.48
2019-04-21T09:16:08.530Z,168472.66
2019-04-21T09:18:42.027Z,168377.22
2019-04-21T09:21:21.880Z,168506.25
2019-04-21T09:23:47.613Z,168569.45
2019-04-21T09:26:20.109Z,168666.23
2019-04-21T09:28:39.519Z,168347.67
2019-04-21T09:31:00.911Z,168328.88
2019-04-21T09:33:34.558Z,168640.69
2019-04-21T09:36:02.561Z,168715.92
2019-04-21T09:38:35.171Z,168349.03
2019-04-21T09:40:58.342Z,168249.61
2019-04-21T09:43:37.708Z,168506.25
2019-04-21T09:45:58.876Z,168412.17
2019-04-21T09:48:30.636Z,168511.58
2019-04-21T09:50:57.446Z,168615.13
2019-04-21T09:53:33.254Z,168433.69
2019-04-21T09:55:59.820Z,168416.19
2019-04-21T09:58:32.973Z,168494.13
2019-04-21T10:01:05.173Z,168453.80
2019-04-21T10:03:26.354Z,168516.95
2019-04-21T10:05:54.833Z,168521.03
2019-04-21T10:08:23.117Z,168473.95
2019-04-21T10:10:51.267Z,168436.34
2019-04-21T10:13:20.817Z,168436.34
2019-04-21T10:16:01.427Z,168484.72
2019-04-21T10:18:29.591Z,168628.56
2019-04-21T10:20:58.960Z,168637.95
2019-04-21T10:23:27.678Z,168605.72
2019-04-21T10:25:56.831Z,168621.87
2019-04-21T10:28:26.768Z,168603.06
2019-04-21T10:30:56.520Z,168603.06
2019-04-21T10:33:26.212Z,168715.92
2019-04-21T10:35:55.165Z,168611.09
2019-04-21T10:38:33.164Z,168629.91
2019-04-21T10:40:53.737Z,168718.66
2019-04-21T10:43:23.800Z,168647.38
2019-04-21T10:45:52.830Z,168609.75
2019-04-21T10:48:21.091Z,168648.72
2019-04-21T10:50:49.456Z,168698.47
2019-04-21T10:53:21.317Z,168736.11
2019-04-21T10:56:04.510Z,168767.09
2019-04-21T10:58:22.886Z,168689.06
2019-04-21T11:00:55.672Z,168802.06
2019-04-21T11:03:58.876Z,168767.09
2019-04-21T11:06:28.600Z,168748.28
2019-04-21T11:08:59.008Z,168811.47
2019-04-21T11:11:27.962Z,168763.08
2019-04-21T11:13:56.809Z,168806.09
2019-04-21T11:16:25.267Z,168831.59
2019-04-21T11:18:53.711Z,168717.28
2019-04-21T11:21:22.917Z,168780.53
2019-04-21T11:23:52.196Z,168909.61
2019-04-21T11:26:21.986Z,168826.27
2019-04-21T11:28:50.549Z,168867.94
2019-04-21T11:31:18.908Z,168807.41
2019-04-21T11:33:47.252Z,168776.50
2019-04-21T11:36:15.656Z,168841.06
2019-04-21T11:39:15.731Z,168802.06
2019-04-21T11:41:34.004Z,168818.17
2019-04-21T11:44:03.433Z,168971.56
2019-04-21T11:46:32.538Z,168902.91
2019-04-21T11:49:02.198Z,168915.00
2019-04-21T11:51:31.014Z,168916.34
2019-04-21T11:53:59.344Z,168979.61
2019-04-21T11:56:27.646Z,168985.00
2019-04-21T11:58:55.986Z,168928.42
2019-04-21T12:01:25.604Z,168869.30
2019-04-21T12:03:54.043Z,168958.06
2019-04-21T12:06:28.591Z,168925.77
2019-04-21T12:08:56.391Z,168920.38
2019-04-21T12:11:23.316Z,168940.56
2019-04-21T12:13:52.117Z,169036.09
2019-04-21T12:16:21.099Z,168993.06
2019-04-21T12:18:49.473Z,168983.64
2019-04-21T12:21:18.919Z,168958.06
2019-04-21T12:23:48.116Z,168915.00
2019-04-21T12:26:18.028Z,169003.83
2019-04-21T12:28:47.938Z,169007.86
2019-04-21T12:31:33.737Z,169022.66
2019-04-21T12:34:03.814Z,169084.52
2019-04-21T12:36:33.723Z,169134.31
2019-04-21T12:39:05.056Z,169048.22
2019-04-21T12:41:32.869Z,169095.30
2019-04-21T12:44:02.529Z,169123.55
2019-04-21T12:46:31.842Z,169126.27
2019-04-21T12:49:00.220Z,169142.38
2019-04-21T12:51:28.485Z,169135.67
2019-04-21T12:53:57.420Z,169176.06
2019-04-21T12:56:27.445Z,169087.25
2019-04-21T12:58:57.545Z,169072.44
2019-04-21T13:01:27.281Z,169088.55
2019-04-21T13:03:57.453Z,169157.17
2019-04-21T13:06:27.645Z,169136.98
2019-04-21T13:09:03.420Z,169176.06
2019-04-21T13:11:26.723Z,169240.67
2019-04-21T13:13:55.720Z,169264.89
2019-04-21T13:16:25.342Z,169259.50
2019-04-21T13:18:53.725Z,169220.47
2019-04-21T13:21:22.438Z,169225.86
2019-04-21T13:23:50.753Z,169157.17
2019-04-21T13:26:29.650Z,169181.44
2019-04-21T13:28:50.095Z,169186.84
2019-04-21T13:31:18.390Z,169100.69
2019-04-21T13:33:48.004Z,169185.53
2019-04-21T13:36:18.000Z,169254.13
2019-04-21T13:39:39.614Z,169178.78
2019-04-21T13:41:54.484Z,169135.67
2019-04-21T13:44:15.514Z,169103.34
2019-04-21T13:46:45.018Z,169122.23
2019-04-21T13:49:13.972Z,169193.59
2019-04-21T13:51:43.845Z,169189.56
2019-04-21T13:54:13.922Z,169184.16
2019-04-21T13:56:42.632Z,169278.34
2019-04-21T13:59:10.970Z,169255.47
2019-04-21T14:01:39.540Z,169255.47
2019-04-21T14:04:09.403Z,169186.84
2019-04-21T14:06:38.639Z,169242.03
2019-04-21T14:09:10.062Z,169374.00
2019-04-21T14:11:38.529Z,169363.22
2019-04-21T14:14:08.272Z,169326.78
2019-04-21T14:16:36.586Z,169235.28
2019-04-21T14:19:05.632Z,169338.94
2019-04-21T14:21:34.158Z,169303.92
2019-04-21T14:24:02.421Z,169205.67
2019-04-21T14:26:30.573Z,169302.56
2019-04-21T14:28:59.285Z,169258.20
2019-04-21T14:31:28.404Z,169332.19
2019-04-21T14:33:58.089Z,169286.45
2019-04-21T14:36:28.559Z,169321.45
2019-04-21T14:38:56.941Z,169262.22
2019-04-21T14:41:26.259Z,169258.20
2019-04-21T14:43:55.107Z,169324.12
2019-04-21T14:46:39.443Z,169394.19
2019-04-21T14:49:23.524Z,169254.13
2019-04-21T14:51:56.860Z,169395.50
2019-04-21T14:54:44.649Z,169449.36
2019-04-21T14:57:13.570Z,169437.27
2019-04-21T14:59:42.822Z,169353.75
2019-04-21T15:02:16.062Z,169446.69
2019-04-21T15:04:45.836Z,169407.64
2019-04-21T15:07:14.993Z,169394.19
2019-04-21T15:09:44.672Z,169503.22
2019-04-21T15:12:16.209Z,169488.41
2019-04-21T15:14:44.582Z,169480.34
2019-04-21T15:17:15.917Z,169491.13
2019-04-21T15:19:52.248Z,169423.77
2019-04-21T15:22:14.508Z,169453.39
2019-04-21T15:24:42.831Z,169430.52
2019-04-21T15:27:12.771Z,169371.28
2019-04-21T15:29:41.059Z,169391.47
2019-04-21T15:32:10.486Z,169413.03
2019-04-21T15:34:40.170Z,169348.34
2019-04-21T15:37:08.532Z,169340.30
2019-04-21T15:39:38.327Z,169328.16
2019-04-21T15:42:06.809Z,169334.91
2019-04-21T15:44:36.492Z,169390.11
2019-04-21T15:47:06.093Z,169408.95
2019-04-21T15:50:02.958Z,169456.11
2019-04-21T15:52:27.748Z,169321.45
2019-04-21T15:55:05.761Z,169355.09
2019-04-21T15:57:42.643Z,169286.45
2019-04-21T16:00:20.714Z,169293.16
2019-04-21T16:02:49.036Z,169286.45
2019-04-21T16:05:19.057Z,169357.81
2019-04-21T16:07:47.971Z,169256.84
2019-04-21T16:10:29.970Z,169275.67
2019-04-21T16:12:47.552Z,169235.28
2019-04-21T16:15:16.762Z,169267.61
2019-04-21T16:17:45.698Z,169328.16
2019-04-21T16:20:15.484Z,169311.98
2019-04-21T16:22:44.508Z,169279.70
2019-04-21T16:25:14.820Z,169227.22
2019-04-21T16:27:43.519Z,169248.72
2019-04-21T16:30:15.611Z,169188.20
2019-04-21T16:32:44.056Z,169161.31
2019-04-21T16:35:14.578Z,169139.70
2019-04-21T16:37:43.654Z,169145.09
2019-04-21T16:40:13.695Z,169135.67
2019-04-21T16:42:42.564Z,169157.17
2019-04-21T16:45:12.675Z,169098.02
2019-04-21T16:47:42.124Z,169089.91
2019-04-21T16:50:11.830Z,169087.25
2019-04-21T16:52:54.122Z,169032.06
2019-04-21T16:55:37.153Z,169048.22
2019-04-21T16:58:26.881Z,169014.59
2019-04-21T17:01:05.113Z,169030.70
2019-04-21T17:03:30.651Z,168990.39
2019-04-21T17:06:00.490Z,169009.22
2019-04-21T17:08:29.171Z,169003.83
2019-04-21T17:11:09.551Z,168976.95
2019-04-21T17:13:27.379Z,168954.00
2019-04-21T17:16:16.852Z,168908.30
2019-04-21T17:18:43.240Z,168875.98
2019-04-21T17:21:01.043Z,168863.91
2019-04-21T17:23:27.332Z,168842.37
2019-04-21T17:25:57.097Z,168807.41
2019-04-21T17:28:25.789Z,168780.53
2019-04-21T17:30:54.624Z,168791.30
2019-04-21T17:33:27.891Z,168753.67
2019-04-21T17:35:53.271Z,168741.48
2019-04-21T17:38:21.850Z,168750.94
2019-04-21T17:40:51.691Z,168719.95
2019-04-21T17:43:21.658Z,168713.27
2019-04-21T17:45:51.053Z,168711.91
2019-04-21T17:48:20.207Z,168655.47
2019-04-21T17:51:01.297Z,168619.16
2019-04-21T17:53:52.004Z,168598.97
2019-04-21T17:56:47.831Z,168594.95
2019-04-21T17:59:09.572Z,168551.95
2019-04-21T18:01:41.982Z,168549.30
2019-04-21T18:04:15.485Z,168504.89
2019-04-21T18:07:02.371Z,168469.94
2019-04-21T18:09:44.051Z,168449.78
2019-04-21T18:12:07.767Z,168422.92
2019-04-21T18:14:22.134Z,168382.61
2019-04-21T18:16:53.321Z,168347.67
2019-04-21T18:19:26.135Z,168320.83
2019-04-21T18:22:17.475Z,168315.44
2019-04-21T18:24:55.767Z,168261.66
2019-04-21T18:27:17.635Z,168224.08
2019-04-21T18:29:48.346Z,168202.56
2019-04-21T18:32:24.786Z,168189.14
2019-04-21T18:35:14.043Z,168154.22
2019-04-21T18:38:08.097Z,168119.31
2019-04-21T18:40:36.439Z,168101.88
2019-04-21T18:43:43.720Z,168095.13
2019-04-21T18:48:27.419Z,168040.08
2019-04-21T18:51:10.331Z,168026.66
2019-04-21T18:54:14.851Z,167983.66
2019-04-21T18:56:23.690Z,167944.78
2019-04-21T18:58:52.275Z,167923.28
2019-04-21T19:01:27.267Z,167896.42
2019-04-21T19:03:55.638Z,167883.02
2019-04-21T19:06:40.509Z,167852.17
2019-04-21T19:09:11.325Z,167828.03
2019-04-21T19:11:32.874Z,167802.52
2019-04-21T19:16:59.048Z,167786.34
2019-04-21T19:21:55.818Z,167720.63
2019-04-21T19:24:41.295Z,167689.75
2019-04-21T19:31:57.741Z,167611.95
2019-04-21T19:34:14.280Z,167590.53
2019-04-21T19:36:45.534Z,167574.42
2019-04-21T19:39:16.269Z,167542.25
2019-04-21T19:41:51.962Z,167546.27
2019-04-21T19:44:26.188Z,167527.45
2019-04-21T19:47:01.345Z,167509.98
2019-04-21T19:49:33.528Z,167484.55
2019-04-21T19:51:51.554Z,167465.78
2019-04-21T19:54:22.111Z,167455.05
2019-04-21T19:56:40.965Z,167432.22
2019-04-21T19:59:11.872Z,167437.59
2019-04-21T20:01:39.440Z,167416.16
2019-04-21T20:04:08.461Z,167392.03
2019-04-21T20:06:47.519Z,167365.20
2019-04-21T20:09:28.114Z,167341.06
2019-04-21T20:11:53.542Z,167329.03
2019-04-21T20:16:53.124Z,167310.28
2019-04-21T20:19:12.631Z,167304.91
2019-04-21T20:21:42.994Z,167298.19
2019-04-21T20:24:16.463Z,167268.70
2019-04-21T20:26:52.074Z,167271.41
2019-04-21T20:29:31.339Z,167260.67
2019-04-21T20:31:54.279Z,167266.05
2019-04-21T20:34:33.784Z,167280.78
2019-04-21T20:37:02.176Z,167270.06
2019-04-21T20:39:21.264Z,167256.67
2019-04-21T20:41:56.256Z,167260.67
2019-04-21T20:44:29.820Z,167239.16
2019-04-21T20:46:59.834Z,167221.77
2019-04-21T20:49:27.076Z,167204.36
2019-04-21T20:52:12.338Z,167224.42
2019-04-21T20:54:30.236Z,167177.53
2019-04-21T21:03:46.385Z,167126.66
2019-04-21T21:06:08.319Z,167118.58
2019-04-21T21:08:40.054Z,167113.22
2019-04-21T21:11:07.052Z,167118.58
2019-04-21T21:13:44.980Z,167106.55
2019-04-21T21:21:15.147Z,167098.53
2019-04-21T21:23:48.014Z,167075.72
2019-04-21T21:26:21.925Z,167032.86
2019-04-21T21:28:46.081Z,167006.09
2019-04-21T21:31:17.609Z,167003.39
2019-04-21T21:33:59.253Z,167000.73
2019-04-21T21:36:19.662Z,166992.66
2019-04-21T21:38:53.004Z,166971.27
2019-04-21T21:41:13.833Z,166963.25
2019-04-21T21:43:33.115Z,166947.16
2019-04-21T21:46:11.002Z,166939.09
2019-04-21T21:48:49.199Z,166936.37
2019-04-21T21:51:10.780Z,166931.02
2019-04-21T21:53:34.721Z,166912.28
2019-04-21T21:56:02.827Z,166888.19
2019-04-21T21:58:36.600Z,166866.73
2019-04-21T22:01:06.037Z,166857.38
2019-04-21T22:03:38.050Z,166852.06
2019-04-21T22:06:09.929Z,166829.25
2019-04-21T22:08:34.468Z,166821.25
2019-04-21T22:11:03.369Z,166807.87
2019-04-21T22:13:38.526Z,166786.42
2019-04-21T22:16:06.966Z,166773.06
2019-04-21T22:18:52.289Z,166756.97
2019-04-21T22:21:12.779Z,166732.87
2019-04-21T22:23:43.817Z,166723.52
2019-04-21T22:26:03.147Z,166716.84
2019-04-21T22:28:31.610Z,166698.06
2019-04-21T22:31:01.105Z,166695.42
2019-04-21T22:33:33.291Z,166665.97
2019-04-21T22:36:09.934Z,166657.95
2019-04-21T22:38:43.390Z,166644.59
2019-04-21T22:41:10.635Z,166633.88
2019-04-21T22:43:36.481Z,166607.03
2019-04-21T22:46:01.231Z,166601.67
2019-04-21T22:48:30.657Z,166582.94
2019-04-21T22:51:00.477Z,166593.66
2019-04-21T22:53:40.491Z,166566.92
2019-04-21T22:56:10.170Z,166553.50
2019-04-21T22:58:33.982Z,166553.50
2019-04-21T23:01:01.895Z,166524.06
2019-04-21T23:03:30.785Z,166516.06
2019-04-21T23:06:07.471Z,166498.69
2019-04-21T23:08:36.375Z,166499.98
2019-04-21T23:11:04.988Z,166481.27
2019-04-21T23:13:32.731Z,166463.91
2019-04-21T23:16:04.165Z,166443.83
2019-04-21T23:18:46.394Z,166430.47
2019-04-21T23:21:16.301Z,166423.75
2019-04-21T23:23:54.104Z,166430.47
2019-04-21T23:26:21.968Z,166418.41
2019-04-21T23:28:50.775Z,166405.03
2019-04-21T23:31:26.767Z,166397.03
2019-04-21T23:33:34.452Z,166395.67
2019-04-21T23:36:12.966Z,166386.31
2019-04-21T23:38:41.758Z,166379.61
2019-04-21T23:41:07.093Z,166372.95
2019-04-21T23:43:35.448Z,166355.53
2019-04-21T23:46:13.241Z,166343.53
2019-04-21T23:48:48.820Z,166342.19
2019-04-21T23:51:15.879Z,166323.47
2019-04-21T23:53:35.393Z,166303.41
2019-04-21T23:56:03.649Z,166279.34
2019-04-21T23:58:34.741Z,166296.75
